createdAt,value
2023-05-07T00:02:16.690Z,44.61
2023-05-07T00:04:43.834Z,44.70
2023-05-07T00:07:10.847Z,44.66
2023-05-07T00:09:38.046Z,44.52
2023-05-07T00:12:05.090Z,44.03
2023-05-07T00:14:32.134Z,44.09
2023-05-07T00:16:59.398Z,44.45
2023-05-07T00:19:26.736Z,44.51
2023-05-07T00:21:55.141Z,44.58
2023-05-07T00:24:22.230Z,44.42
2023-05-07T00:26:49.301Z,44.41
2023-05-07T00:29:16.257Z,44.59
2023-05-07T00:31:43.358Z,44.68
2023-05-07T00:34:10.544Z,44.43
2023-05-07T00:36:37.517Z,44.84
2023-05-07T00:39:04.936Z,45.00
2023-05-07T00:41:32.192Z,45.21
2023-05-07T00:43:59.726Z,45.49
2023-05-07T00:46:27.276Z,45.73
2023-05-07T00:48:54.606Z,45.71
2023-05-07T00:51:21.583Z,45.85
2023-05-07T00:53:48.787Z,45.78
2023-05-07T00:56:15.743Z,45.72
2023-05-07T00:58:43.083Z,45.76
2023-05-07T01:01:10.168Z,45.70
2023-05-07T01:03:37.320Z,45.81
2023-05-07T01:06:04.877Z,45.97
2023-05-07T01:08:32.406Z,45.95
2023-05-07T01:10:59.483Z,46.35
2023-05-07T01:13:26.622Z,46.56
2023-05-07T01:15:53.899Z,46.69
2023-05-07T01:18:21.265Z,46.95
2023-05-07T01:20:48.541Z,47.03
2023-05-07T01:23:15.572Z,47.19
2023-05-07T01:25:42.585Z,47.34
2023-05-07T01:28:09.866Z,47.46
2023-05-07T01:30:37.624Z,47.59
2023-05-07T01:33:10.782Z,47.58
2023-05-07T01:35:44.186Z,47.67
2023-05-07T01:38:11.251Z,47.66
2023-05-07T01:40:38.450Z,47.83
2023-05-07T01:43:05.458Z,47.97
2023-05-07T01:45:33.327Z,48.05
2023-05-07T01:48:00.688Z,48.27
2023-05-07T01:50:27.846Z,48.30
2023-05-07T01:52:54.852Z,48.43
2023-05-07T01:55:22.088Z,48.28
2023-05-07T01:57:49.138Z,48.32
2023-05-07T02:00:16.787Z,48.53
2023-05-07T02:02:43.824Z,48.67
2023-05-07T02:05:17.276Z,48.64
2023-05-07T02:07:47.019Z,48.67
2023-05-07T02:10:14.469Z,48.80
2023-05-07T02:12:41.515Z,48.89
2023-05-07T02:15:08.930Z,48.89
2023-05-07T02:17:36.807Z,49.09
2023-05-07T02:20:05.018Z,49.01
2023-05-07T02:22:31.982Z,49.10
2023-05-07T02:24:58.952Z,49.16
2023-05-07T02:27:25.887Z,49.24
2023-05-07T02:29:53.064Z,49.44
2023-05-07T02:32:20.246Z,49.73
2023-05-07T02:34:47.195Z,49.86
2023-05-07T02:37:14.146Z,49.63
2023-05-07T02:39:41.241Z,49.67
2023-05-07T02:42:08.253Z,49.78
2023-05-07T02:44:36.755Z,49.92
2023-05-07T02:47:05.053Z,50.00
2023-05-07T02:49:32.563Z,50.11
2023-05-07T02:51:59.746Z,50.15
2023-05-07T02:54:26.925Z,50.24
2023-05-07T02:56:53.945Z,50.07
2023-05-07T02:59:20.922Z,50.08
2023-05-07T03:01:48.124Z,50.06
2023-05-07T03:04:16.814Z,50.15
2023-05-07T03:06:43.954Z,50.06
2023-05-07T03:09:10.916Z,50.22
2023-05-07T03:11:38.003Z,50.22
2023-05-07T03:14:04.985Z,50.31
2023-05-07T03:16:32.407Z,50.29
2023-05-07T03:18:59.513Z,50.39
2023-05-07T03:21:27.572Z,50.55
2023-05-07T03:23:54.751Z,50.63
2023-05-07T03:26:22.455Z,50.73
2023-05-07T03:28:49.412Z,51.02
2023-05-07T03:31:17.049Z,51.55
2023-05-07T03:33:54.428Z,51.34
2023-05-07T03:36:21.706Z,51.44
2023-05-07T03:38:49.196Z,51.67
2023-05-07T03:41:18.509Z,51.73
2023-05-07T03:43:45.735Z,51.61
2023-05-07T03:46:12.915Z,51.63
2023-05-07T03:48:40.132Z,51.40
2023-05-07T03:51:07.387Z,51.55
2023-05-07T03:53:34.405Z,51.55
2023-05-07T03:56:01.405Z,51.56
2023-05-07T03:58:29.937Z,51.55
2023-05-07T04:00:58.262Z,51.53
2023-05-07T04:03:27.214Z,51.51
2023-05-07T04:05:54.554Z,51.51
2023-05-07T04:08:21.817Z,51.64
2023-05-07T04:10:55.993Z,51.72
2023-05-07T04:13:23.452Z,51.71
2023-05-07T04:15:52.618Z,51.86
2023-05-07T04:18:19.866Z,51.55
2023-05-07T04:20:48.151Z,51.49
2023-05-07T04:23:15.288Z,51.38
2023-05-07T04:25:42.731Z,51.30
2023-05-07T04:28:20.247Z,51.18
2023-05-07T04:30:47.320Z,51.18
2023-05-07T04:33:16.037Z,51.31
2023-05-07T04:35:43.341Z,51.22
2023-05-07T04:38:10.394Z,51.25
2023-05-07T04:40:38.186Z,51.10
2023-05-07T04:43:05.693Z,51.02
2023-05-07T04:45:34.894Z,51.06
2023-05-07T04:48:02.094Z,51.09
2023-05-07T04:50:29.823Z,51.10
2023-05-07T04:52:58.655Z,50.89
2023-05-07T04:55:25.776Z,51.17
2023-05-07T04:57:53.197Z,51.27
2023-05-07T05:00:21.141Z,51.01
2023-05-07T05:02:48.719Z,50.58
2023-05-07T05:05:18.117Z,50.55
2023-05-07T05:07:45.500Z,50.34
2023-05-07T05:10:13.031Z,50.45
2023-05-07T05:12:40.823Z,50.32
2023-05-07T05:15:08.792Z,50.44
2023-05-07T05:17:36.972Z,50.45
2023-05-07T05:20:05.090Z,50.47
2023-05-07T05:22:32.640Z,50.60
2023-05-07T05:25:00.073Z,50.78
2023-05-07T05:27:27.529Z,50.63
2023-05-07T05:29:54.686Z,50.34
2023-05-07T05:32:21.755Z,49.37
2023-05-07T05:34:49.589Z,48.58
2023-05-07T05:37:16.621Z,47.72
2023-05-07T05:39:45.311Z,47.06
2023-05-07T05:42:12.339Z,46.42
2023-05-07T05:44:39.586Z,45.48
2023-05-07T05:47:06.681Z,44.81
2023-05-07T05:49:33.870Z,43.58
2023-05-07T05:52:01.257Z,42.81
2023-05-07T05:54:28.320Z,42.38
2023-05-07T05:56:55.479Z,41.84
2023-05-07T05:59:22.955Z,41.44
2023-05-07T06:01:50.273Z,40.65
2023-05-07T06:04:17.332Z,40.46
2023-05-07T06:06:44.373Z,40.29
2023-05-07T06:09:11.670Z,40.34
2023-05-07T06:11:42.262Z,40.46
2023-05-07T06:14:09.888Z,40.33
2023-05-07T06:16:39.254Z,40.41
2023-05-07T06:19:06.986Z,40.55
2023-05-07T06:21:34.494Z,40.98
2023-05-07T06:24:01.539Z,41.17
2023-05-07T06:26:28.960Z,41.11
2023-05-07T06:28:56.048Z,41.31
2023-05-07T06:31:23.865Z,41.55
2023-05-07T06:33:57.467Z,41.43
2023-05-07T06:36:30.615Z,41.15
2023-05-07T06:38:58.729Z,40.47
2023-05-07T06:41:27.000Z,40.29
2023-05-07T06:43:55.512Z,40.30
2023-05-07T06:46:46.446Z,40.30
2023-05-07T06:49:14.486Z,40.31
2023-05-07T06:54:04.980Z,41.22
2023-05-07T06:56:33.421Z,40.55
2023-05-07T06:59:01.352Z,41.02
2023-05-07T07:01:31.518Z,41.28
2023-05-07T07:03:58.929Z,40.56
2023-05-07T07:06:26.295Z,40.39
2023-05-07T07:08:53.427Z,40.41
2023-05-07T07:11:21.396Z,40.37
2023-05-07T07:13:48.451Z,40.00
2023-05-07T07:16:15.877Z,40.00
2023-05-07T07:18:43.574Z,40.30
2023-05-07T07:21:10.713Z,40.95
2023-05-07T07:23:37.959Z,41.37
2023-05-07T07:26:07.264Z,41.45
2023-05-07T07:28:34.612Z,40.85
2023-05-07T07:31:01.895Z,40.74
2023-05-07T07:33:30.756Z,41.17
2023-05-07T07:35:58.108Z,41.38
2023-05-07T07:38:25.362Z,41.47
2023-05-07T07:40:52.409Z,41.38
2023-05-07T07:43:20.172Z,41.40
2023-05-07T07:45:47.837Z,41.68
2023-05-07T07:48:15.253Z,41.86
2023-05-07T07:50:45.851Z,42.21
2023-05-07T07:53:15.435Z,42.31
2023-05-07T07:55:43.188Z,42.51
2023-05-07T07:58:11.976Z,42.64
2023-05-07T08:00:39.046Z,43.15
2023-05-07T08:03:07.999Z,43.63
2023-05-07T08:05:39.011Z,43.87
2023-05-07T08:08:06.951Z,43.58
2023-05-07T08:10:35.416Z,43.37
2023-05-07T08:13:05.947Z,43.30
2023-05-07T08:15:34.238Z,43.17
2023-05-07T08:18:02.772Z,43.15
2023-05-07T08:20:31.114Z,43.12
2023-05-07T08:22:58.682Z,43.24
2023-05-07T08:25:27.216Z,42.90
2023-05-07T08:27:55.109Z,42.94
2023-05-07T08:30:22.745Z,43.07
2023-05-07T08:32:50.635Z,43.08
2023-05-07T08:35:17.763Z,43.06
2023-05-07T08:37:45.010Z,42.47
2023-05-07T08:40:14.458Z,42.18
2023-05-07T08:42:42.585Z,41.95
2023-05-07T08:45:11.339Z,42.00
2023-05-07T08:47:53.489Z,42.22
2023-05-07T08:50:21.979Z,42.59
2023-05-07T08:52:50.228Z,42.43
2023-05-07T08:55:17.677Z,42.45
2023-05-07T08:57:45.449Z,42.03
2023-05-07T09:00:14.252Z,42.19
2023-05-07T09:02:41.723Z,42.30
2023-05-07T09:05:10.041Z,42.10
2023-05-07T09:07:37.744Z,41.79
2023-05-07T09:10:06.736Z,42.01
2023-05-07T09:12:36.079Z,42.21
2023-05-07T09:15:04.399Z,42.12
2023-05-07T09:17:32.497Z,42.15
2023-05-07T09:20:08.573Z,42.48
2023-05-07T09:22:37.841Z,42.67
2023-05-07T09:25:08.531Z,42.45
2023-05-07T09:27:36.831Z,42.70
2023-05-07T09:30:24.772Z,42.55
2023-05-07T09:32:52.295Z,42.80
2023-05-07T09:35:22.349Z,42.85
2023-05-07T09:37:53.800Z,42.38
2023-05-07T09:40:22.617Z,42.53
2023-05-07T09:42:50.567Z,42.50
2023-05-07T09:45:30.114Z,42.63
2023-05-07T09:47:58.894Z,42.77
2023-05-07T09:50:28.562Z,42.65
2023-05-07T09:52:56.097Z,42.66
2023-05-07T09:55:23.831Z,42.40
2023-05-07T09:57:52.909Z,42.21
2023-05-07T10:00:21.800Z,41.54
2023-05-07T10:02:50.420Z,41.45
2023-05-07T10:05:19.148Z,41.40
2023-05-07T10:07:46.935Z,41.62
2023-05-07T10:10:15.924Z,41.53
2023-05-07T10:12:43.919Z,41.64
2023-05-07T10:15:15.490Z,41.16
2023-05-07T10:17:45.408Z,41.20
2023-05-07T10:20:13.639Z,41.25
2023-05-07T10:22:44.075Z,41.54
2023-05-07T10:25:19.625Z,41.52
2023-05-07T10:27:47.797Z,41.14
2023-05-07T10:30:39.114Z,41.20
2023-05-07T10:33:07.808Z,40.51
2023-05-07T10:35:41.716Z,40.09
2023-05-07T10:38:09.311Z,40.68
2023-05-07T10:40:38.055Z,40.83
2023-05-07T10:43:09.488Z,39.75
2023-05-07T10:45:42.072Z,39.04
2023-05-07T10:48:29.592Z,39.17
2023-05-07T10:51:19.380Z,39.72
2023-05-07T10:53:46.446Z,39.87
2023-05-07T10:56:18.189Z,39.74
2023-05-07T10:58:50.472Z,39.39
2023-05-07T11:01:59.399Z,39.23
2023-05-07T11:05:24.307Z,39.38
2023-05-07T11:08:13.132Z,39.40
2023-05-07T11:10:58.687Z,39.11
2023-05-07T11:13:46.856Z,39.07
2023-05-07T11:16:43.156Z,38.94
2023-05-07T11:19:49.559Z,39.09
2023-05-07T11:22:46.837Z,39.40
2023-05-07T11:25:34.547Z,39.32
2023-05-07T11:28:31.932Z,39.71
2023-05-07T11:31:02.857Z,39.97
2023-05-07T11:33:33.938Z,40.00
2023-05-07T11:36:03.212Z,39.68
2023-05-07T11:38:37.501Z,39.51
2023-05-07T11:41:05.750Z,39.69
2023-05-07T11:43:33.435Z,39.57
2023-05-07T11:46:10.675Z,39.65
2023-05-07T11:48:39.206Z,39.27
2023-05-07T11:51:07.110Z,38.97
2023-05-07T11:53:39.051Z,39.46
2023-05-07T11:56:10.329Z,39.34
2023-05-07T11:58:37.835Z,38.62
2023-05-07T12:01:05.107Z,38.57
2023-05-07T12:03:35.856Z,38.70
2023-05-07T12:06:03.694Z,38.46
2023-05-07T12:08:31.457Z,37.83
2023-05-07T12:10:58.804Z,38.35
2023-05-07T12:13:27.314Z,38.33
2023-05-07T12:15:55.587Z,38.01
2023-05-07T12:18:23.021Z,37.82
2023-05-07T12:20:50.084Z,37.77
2023-05-07T12:23:17.417Z,37.91
2023-05-07T12:25:47.374Z,37.87
2023-05-07T12:28:17.786Z,37.64
2023-05-07T12:30:46.296Z,37.37
2023-05-07T12:33:17.100Z,36.99
2023-05-07T12:35:44.644Z,37.29
2023-05-07T12:38:13.917Z,37.11
2023-05-07T12:40:40.800Z,37.33
2023-05-07T12:43:08.243Z,37.41
2023-05-07T12:45:39.514Z,37.16
2023-05-07T12:48:06.769Z,36.96
2023-05-07T12:50:35.014Z,36.65
2023-05-07T12:53:06.362Z,36.50
2023-05-07T12:55:34.834Z,36.25
2023-05-07T12:58:03.330Z,36.01
2023-05-07T13:00:37.840Z,36.04
2023-05-07T13:03:05.253Z,35.90
2023-05-07T13:05:32.981Z,35.87
2023-05-07T13:08:00.195Z,36.00
2023-05-07T13:10:27.667Z,35.66
2023-05-07T13:12:54.875Z,35.94
2023-05-07T13:15:22.390Z,36.35
2023-05-07T13:17:49.393Z,36.49
2023-05-07T13:20:16.698Z,36.60
2023-05-07T13:22:43.823Z,36.48
2023-05-07T13:25:11.113Z,36.28
2023-05-07T13:27:38.841Z,36.24
2023-05-07T13:30:07.318Z,36.60
2023-05-07T13:32:34.406Z,36.31
2023-05-07T13:35:02.141Z,35.70
2023-05-07T13:37:29.289Z,35.48
2023-05-07T13:39:56.426Z,35.61
2023-05-07T13:42:23.674Z,35.68
2023-05-07T13:44:51.039Z,35.68
2023-05-07T13:47:18.089Z,35.90
2023-05-07T13:49:45.329Z,35.93
2023-05-07T13:52:12.377Z,36.38
2023-05-07T13:54:39.433Z,36.07
2023-05-07T13:57:06.573Z,36.38
2023-05-07T13:59:34.340Z,36.41
2023-05-07T14:02:01.592Z,35.95
2023-05-07T14:04:29.353Z,35.93
2023-05-07T14:10:21.137Z,35.55
2023-05-07T14:12:48.289Z,35.57
2023-05-07T14:15:16.121Z,35.70
2023-05-07T14:17:43.950Z,35.58
2023-05-07T14:20:13.395Z,35.49
2023-05-07T14:22:40.740Z,35.33
2023-05-07T14:25:08.542Z,34.79
2023-05-07T14:27:35.954Z,34.42
2023-05-07T14:30:03.263Z,34.29
2023-05-07T14:32:30.573Z,34.56
2023-05-07T14:34:57.709Z,35.17
2023-05-07T14:37:25.380Z,35.38
2023-05-07T14:39:52.829Z,35.14
2023-05-07T14:42:19.874Z,34.53
2023-05-07T14:44:49.491Z,34.36
2023-05-07T14:47:18.305Z,33.98
2023-05-07T14:49:46.860Z,34.04
2023-05-07T14:52:14.329Z,34.18
2023-05-07T14:54:41.375Z,34.86
2023-05-07T14:57:10.877Z,35.57
2023-05-07T14:59:39.215Z,35.16
2023-05-07T15:02:09.304Z,34.64
2023-05-07T15:04:37.432Z,34.40
2023-05-07T15:07:04.477Z,34.41
2023-05-07T15:09:31.530Z,34.37
2023-05-07T15:11:58.480Z,34.33
2023-05-07T15:14:25.624Z,34.22
2023-05-07T15:16:52.773Z,34.36
2023-05-07T15:19:19.814Z,34.13
2023-05-07T15:21:46.866Z,34.03
2023-05-07T15:24:14.114Z,34.13
2023-05-07T15:26:41.496Z,33.88
2023-05-07T15:29:11.319Z,33.48
2023-05-07T15:31:40.398Z,33.51
2023-05-07T15:34:07.736Z,33.60
2023-05-07T15:36:34.775Z,33.80
2023-05-07T15:39:03.956Z,34.09
2023-05-07T15:41:31.535Z,33.90
2023-05-07T15:43:58.781Z,33.79
2023-05-07T15:46:26.517Z,34.33
2023-05-07T15:48:54.231Z,34.77
2023-05-07T15:51:22.991Z,34.75
2023-05-07T15:53:50.638Z,35.01
2023-05-07T15:56:17.709Z,35.58
2023-05-07T15:58:44.752Z,35.90
2023-05-07T16:01:11.937Z,35.84
2023-05-07T16:03:40.668Z,35.43
2023-05-07T16:06:08.149Z,34.98
2023-05-07T16:08:35.227Z,34.78
2023-05-07T16:11:02.254Z,34.96
2023-05-07T16:13:29.344Z,35.06
2023-05-07T16:16:00.159Z,35.18
2023-05-07T16:18:27.408Z,35.10
2023-05-07T16:20:54.776Z,34.99
2023-05-07T16:23:21.803Z,35.14
2023-05-07T16:25:49.685Z,35.19
2023-05-07T16:28:16.816Z,35.46
2023-05-07T16:30:44.154Z,35.78
2023-05-07T16:33:11.213Z,35.79
2023-05-07T16:35:38.189Z,35.52
2023-05-07T16:38:10.267Z,35.59
2023-05-07T16:40:40.607Z,35.43
2023-05-07T16:43:07.777Z,35.30
2023-05-07T16:45:34.756Z,35.24
2023-05-07T16:48:03.453Z,35.42
2023-05-07T16:50:30.542Z,35.41
2023-05-07T16:52:57.509Z,35.32
2023-05-07T16:55:24.875Z,35.44
2023-05-07T16:57:51.990Z,35.37
2023-05-07T17:00:19.386Z,35.42
2023-05-07T17:02:47.174Z,35.68
2023-05-07T17:05:14.738Z,35.80
2023-05-07T17:07:42.087Z,35.86
2023-05-07T17:10:09.547Z,35.87
2023-05-07T17:12:37.799Z,36.35
2023-05-07T17:15:05.350Z,36.24
2023-05-07T17:17:33.036Z,36.18
2023-05-07T17:20:00.355Z,35.97
2023-05-07T17:22:27.623Z,35.47
2023-05-07T17:24:54.786Z,35.38
2023-05-07T17:27:21.925Z,35.38
2023-05-07T17:29:48.861Z,35.20
2023-05-07T17:32:16.101Z,35.31
2023-05-07T17:34:43.061Z,35.36
2023-05-07T17:37:10.102Z,35.41
2023-05-07T17:39:37.240Z,35.44
2023-05-07T17:42:04.395Z,35.59
2023-05-07T17:44:31.419Z,35.50
2023-05-07T17:46:58.388Z,35.32
2023-05-07T17:49:25.422Z,35.33
2023-05-07T17:51:55.181Z,35.30
2023-05-07T17:54:24.466Z,35.15
2023-05-07T17:56:51.636Z,35.11
2023-05-07T17:59:18.605Z,34.82
2023-05-07T18:01:45.649Z,34.72
2023-05-07T18:04:12.852Z,34.71
2023-05-07T18:06:41.821Z,34.48
2023-05-07T18:09:08.864Z,34.48
2023-05-07T18:11:37.387Z,34.36
2023-05-07T18:14:04.434Z,34.25
2023-05-07T18:16:31.622Z,34.40
2023-05-07T18:18:58.590Z,34.34
2023-05-07T18:21:25.600Z,34.24
2023-05-07T18:23:52.567Z,34.32
2023-05-07T18:26:19.530Z,34.40
2023-05-07T18:28:46.653Z,34.48
2023-05-07T18:31:13.708Z,34.48
2023-05-07T18:33:40.771Z,34.47
2023-05-07T18:36:07.808Z,34.34
2023-05-07T18:38:34.781Z,34.23
2023-05-07T18:41:04.893Z,34.19
2023-05-07T18:43:32.400Z,34.18
2023-05-07T18:45:59.413Z,34.08
2023-05-07T18:48:26.470Z,34.18
2023-05-07T18:50:53.421Z,34.34
2023-05-07T18:53:20.470Z,34.36
2023-05-07T18:55:53.561Z,34.26
2023-05-07T18:58:20.752Z,34.41
2023-05-07T19:00:48.405Z,34.48
2023-05-07T19:03:16.054Z,34.80
2023-05-07T19:05:44.115Z,34.87
2023-05-07T19:08:11.176Z,34.92
2023-05-07T19:10:40.856Z,35.02
2023-05-07T19:13:07.941Z,35.04
2023-05-07T19:15:34.995Z,34.99
2023-05-07T19:18:02.051Z,35.08
2023-05-07T19:20:29.409Z,35.23
2023-05-07T19:22:56.476Z,35.31
2023-05-07T19:25:23.565Z,35.54
2023-05-07T19:27:51.373Z,35.87
2023-05-07T19:30:18.885Z,36.29
2023-05-07T19:32:46.150Z,37.17
2023-05-07T19:35:13.538Z,38.33
2023-05-07T19:37:40.744Z,39.07
2023-05-07T19:40:09.528Z,39.52
2023-05-07T19:42:36.573Z,40.00
2023-05-07T19:45:04.722Z,39.93
2023-05-07T19:47:31.784Z,39.72
2023-05-07T19:49:58.759Z,39.57
2023-05-07T19:52:26.538Z,39.32
2023-05-07T19:54:53.511Z,38.68
2023-05-07T19:57:20.489Z,38.49
2023-05-07T19:59:47.440Z,38.17
2023-05-07T20:02:15.455Z,37.99
2023-05-07T20:04:42.509Z,37.62
2023-05-07T20:07:09.467Z,37.59
2023-05-07T20:09:36.462Z,37.59
2023-05-07T20:12:03.603Z,37.85
2023-05-07T20:14:30.611Z,38.11
2023-05-07T20:16:57.582Z,38.39
2023-05-07T20:19:25.160Z,38.52
2023-05-07T20:21:53.011Z,38.72
2023-05-07T20:24:20.022Z,38.84
2023-05-07T20:26:47.002Z,38.89
2023-05-07T20:29:13.949Z,39.03
2023-05-07T20:31:41.182Z,39.13
2023-05-07T20:34:08.334Z,39.50
2023-05-07T20:36:36.136Z,39.97
2023-05-07T20:39:04.352Z,40.28
2023-05-07T20:41:31.405Z,40.90
2023-05-07T20:43:58.642Z,41.42
2023-05-07T20:46:27.491Z,41.86
2023-05-07T20:48:54.928Z,42.37
2023-05-07T20:51:21.876Z,42.61
2023-05-07T20:53:48.913Z,42.56
2023-05-07T20:56:16.154Z,42.78
2023-05-07T20:58:43.098Z,43.01
2023-05-07T21:01:10.145Z,43.49
2023-05-07T21:03:37.140Z,44.00
2023-05-07T21:06:04.480Z,44.17
2023-05-07T21:08:31.482Z,44.35
2023-05-07T21:10:58.439Z,44.86
2023-05-07T21:13:25.511Z,45.21
2023-05-07T21:15:53.209Z,45.65
2023-05-07T21:18:20.212Z,45.98
2023-05-07T21:20:47.173Z,45.98
2023-05-07T21:23:14.120Z,46.10
2023-05-07T21:25:41.689Z,46.21
2023-05-07T21:28:09.450Z,46.23
2023-05-07T21:30:37.156Z,45.97
2023-05-07T21:33:06.237Z,45.72
2023-05-07T21:35:38.247Z,45.82
2023-05-07T21:38:05.274Z,46.30
2023-05-07T21:40:32.275Z,46.41
2023-05-07T21:43:00.721Z,46.55
2023-05-07T21:45:27.740Z,46.79
2023-05-07T21:47:54.875Z,47.10
2023-05-07T21:50:22.270Z,47.68
2023-05-07T21:52:49.494Z,48.00
2023-05-07T21:55:17.793Z,48.29
2023-05-07T21:57:53.757Z,48.55
2023-05-07T22:00:29.605Z,48.44
2023-05-07T22:02:56.639Z,48.18
2023-05-07T22:05:23.768Z,48.10
2023-05-07T22:07:50.985Z,47.99
2023-05-07T22:10:22.853Z,47.96
2023-05-07T22:12:50.418Z,47.79
2023-05-07T22:15:17.696Z,47.76
2023-05-07T22:17:44.758Z,47.75
2023-05-07T22:20:12.209Z,47.79
2023-05-07T22:22:51.718Z,47.87
2023-05-07T22:25:20.217Z,48.16
2023-05-07T22:27:47.174Z,48.09
2023-05-07T22:30:14.496Z,48.38
2023-05-07T22:32:45.120Z,48.52
2023-05-07T22:35:12.246Z,48.57
2023-05-07T22:37:39.447Z,48.72
2023-05-07T22:40:07.097Z,48.76
2023-05-07T22:42:34.076Z,48.90
2023-05-07T22:45:01.054Z,48.81
2023-05-07T22:47:31.399Z,48.68
2023-05-07T22:49:58.494Z,48.77
2023-05-07T22:52:25.476Z,48.77
2023-05-07T22:54:52.452Z,48.87
2023-05-07T22:57:19.441Z,49.01
2023-05-07T22:59:46.451Z,48.91
2023-05-07T23:02:13.491Z,49.18
2023-05-07T23:04:40.540Z,49.33
2023-05-07T23:07:07.477Z,49.46
2023-05-07T23:09:34.522Z,49.54
2023-05-07T23:12:01.479Z,49.62
2023-05-07T23:14:28.414Z,49.67
2023-05-07T23:16:55.486Z,49.70
2023-05-07T23:19:22.519Z,49.66
2023-05-07T23:21:49.534Z,49.63
2023-05-07T23:24:16.552Z,49.60
2023-05-07T23:26:43.541Z,49.75
2023-05-07T23:29:10.504Z,49.76
2023-05-07T23:31:37.710Z,49.75
2023-05-07T23:34:04.740Z,49.83
2023-05-07T23:36:32.770Z,49.95
2023-05-07T23:38:59.725Z,50.11
2023-05-07T23:41:26.769Z,50.43
2023-05-07T23:43:53.828Z,50.54
2023-05-07T23:46:20.898Z,50.66
2023-05-07T23:48:47.870Z,50.62
2023-05-07T23:51:14.810Z,50.50
2023-05-07T23:53:42.026Z,50.54
2023-05-07T23:56:09.020Z,50.51
2023-05-07T23:58:35.958Z,50.37
